sensor_id;sensor_type;location;lat;lon;timestamp;P1;durP1;ratioP1;P2;durP2;ratioP2
51499;SDS011;39101;53.478;6.158;2023-04-01T00:01:03;19.00;;;11.00;;
51499;SDS011;39101;53.478;6.158;2023-04-01T00:03:30;24.50;;;11.83;;
51499;SDS011;39101;53.478;6.158;2023-04-01T00:05:58;27.07;;;12.67;;
51499;SDS011;39101;53.478;6.158;2023-04-01T00:08:25;26.93;;;12.27;;
51499;SDS011;39101;53.478;6.158;2023-04-01T00:10:51;24.87;;;14.23;;
51499;SDS011;39101;53.478;6.158;2023-04-01T00:13:17;23.00;;;12.13;;
51499;SDS011;39101;53.478;6.158;2023-04-01T00:15:43;21.50;;;12.50;;
51499;SDS011;39101;53.478;6.158;2023-04-01T00:18:10;20.87;;;13.00;;
51499;SDS011;39101;53.478;6.158;2023-04-01T00:20:36;27.50;;;13.30;;
51499;SDS011;39101;53.478;6.158;2023-04-01T00:23:02;23.17;;;12.57;;
51499;SDS011;39101;53.478;6.158;2023-04-01T00:25:28;20.67;;;11.27;;
51499;SDS011;39101;53.478;6.158;2023-04-01T00:27:54;24.17;;;12.00;;
51499;SDS011;39101;53.478;6.158;2023-04-01T00:30:20;25.50;;;13.13;;
51499;SDS011;39101;53.478;6.158;2023-04-01T00:32:45;24.70;;;13.00;;
51499;SDS011;39101;53.478;6.158;2023-04-01T00:35:11;20.97;;;12.20;;
51499;SDS011;39101;53.478;6.158;2023-04-01T00:37:37;22.07;;;11.93;;
51499;SDS011;39101;53.478;6.158;2023-04-01T00:40:10;19.80;;;10.67;;
51499;SDS011;39101;53.478;6.158;2023-04-01T00:42:51;20.83;;;12.27;;
51499;SDS011;39101;53.478;6.158;2023-04-01T00:48:18;18.90;;;10.90;;
51499;SDS011;39101;53.478;6.158;2023-04-01T00:50:51;21.37;;;11.37;;
51499;SDS011;39101;53.478;6.158;2023-04-01T00:53:20;20.00;;;11.20;;
51499;SDS011;39101;53.478;6.158;2023-04-01T00:55:49;21.37;;;10.20;;
51499;SDS011;39101;53.478;6.158;2023-04-01T00:58:20;20.43;;;12.13;;
51499;SDS011;39101;53.478;6.158;2023-04-01T01:00:48;22.27;;;11.45;;
51499;SDS011;39101;53.478;6.158;2023-04-01T01:03:16;23.20;;;13.30;;
51499;SDS011;39101;53.478;6.158;2023-04-01T01:05:52;26.07;;;13.67;;
51499;SDS011;39101;53.478;6.158;2023-04-01T01:11:40;30.57;;;13.60;;
51499;SDS011;39101;53.478;6.158;2023-04-01T01:14:54;16.77;;;11.97;;
51499;SDS011;39101;53.478;6.158;2023-04-01T01:17:02;24.03;;;12.87;;
51499;SDS011;39101;53.478;6.158;2023-04-01T01:19:38;28.10;;;13.50;;
51499;SDS011;39101;53.478;6.158;2023-04-01T01:25:22;22.80;;;13.00;;
51499;SDS011;39101;53.478;6.158;2023-04-01T01:28:08;25.03;;;13.60;;
51499;SDS011;39101;53.478;6.158;2023-04-01T01:31:19;26.33;;;13.80;;
51499;SDS011;39101;53.478;6.158;2023-04-01T01:33:57;28.00;;;13.40;;
51499;SDS011;39101;53.478;6.158;2023-04-01T01:36:31;23.80;;;13.70;;
51499;SDS011;39101;53.478;6.158;2023-04-01T01:39:05;22.17;;;12.53;;
51499;SDS011;39101;53.478;6.158;2023-04-01T01:43:58;23.23;;;12.90;;
51499;SDS011;39101;53.478;6.158;2023-04-01T01:46:27;25.77;;;13.10;;
51499;SDS011;39101;53.478;6.158;2023-04-01T01:48:55;27.13;;;14.87;;
51499;SDS011;39101;53.478;6.158;2023-04-01T01:51:22;29.20;;;14.97;;
51499;SDS011;39101;53.478;6.158;2023-04-01T01:53:48;32.83;;;17.80;;
51499;SDS011;39101;53.478;6.158;2023-04-01T01:56:14;33.37;;;17.30;;
51499;SDS011;39101;53.478;6.158;2023-04-01T01:58:43;28.47;;;16.13;;
51499;SDS011;39101;53.478;6.158;2023-04-01T02:01:16;32.67;;;17.13;;
51499;SDS011;39101;53.478;6.158;2023-04-01T02:03:45;28.47;;;15.30;;
51499;SDS011;39101;53.478;6.158;2023-04-01T02:06:14;24.57;;;14.90;;
51499;SDS011;39101;53.478;6.158;2023-04-01T02:08:44;29.02;;;16.05;;
51499;SDS011;39101;53.478;6.158;2023-04-01T02:11:18;26.20;;;16.60;;
51499;SDS011;39101;53.478;6.158;2023-04-01T02:16:19;31.60;;;16.53;;
51499;SDS011;39101;53.478;6.158;2023-04-01T02:18:52;30.07;;;15.30;;
51499;SDS011;39101;53.478;6.158;2023-04-01T02:21:21;30.57;;;15.93;;
51499;SDS011;39101;53.478;6.158;2023-04-01T02:23:49;31.97;;;17.10;;
51499;SDS011;39101;53.478;6.158;2023-04-01T02:26:18;31.47;;;16.40;;
51499;SDS011;39101;53.478;6.158;2023-04-01T02:28:45;28.93;;;15.73;;
51499;SDS011;39101;53.478;6.158;2023-04-01T02:31:13;33.60;;;17.30;;
51499;SDS011;39101;53.478;6.158;2023-04-01T02:33:40;31.17;;;16.87;;
51499;SDS011;39101;53.478;6.158;2023-04-01T02:36:10;30.17;;;15.60;;
51499;SDS011;39101;53.478;6.158;2023-04-01T02:38:38;28.87;;;16.13;;
51499;SDS011;39101;53.478;6.158;2023-04-01T02:41:04;32.70;;;17.27;;
51499;SDS011;39101;53.478;6.158;2023-04-01T02:43:31;36.20;;;18.13;;
51499;SDS011;39101;53.478;6.158;2023-04-01T02:45:57;32.63;;;17.40;;
51499;SDS011;39101;53.478;6.158;2023-04-01T02:48:22;36.67;;;17.23;;
51499;SDS011;39101;53.478;6.158;2023-04-01T02:50:48;38.20;;;16.87;;
51499;SDS011;39101;53.478;6.158;2023-04-01T02:53:14;39.50;;;17.07;;
51499;SDS011;39101;53.478;6.158;2023-04-01T02:55:41;47.80;;;17.53;;
51499;SDS011;39101;53.478;6.158;2023-04-01T02:58:06;34.40;;;15.90;;
51499;SDS011;39101;53.478;6.158;2023-04-01T03:00:32;37.53;;;17.87;;
51499;SDS011;39101;53.478;6.158;2023-04-01T03:02:58;37.73;;;18.20;;
51499;SDS011;39101;53.478;6.158;2023-04-01T03:05:25;32.03;;;16.20;;
51499;SDS011;39101;53.478;6.158;2023-04-01T03:07:50;37.43;;;15.53;;
51499;SDS011;39101;53.478;6.158;2023-04-01T03:10:16;42.13;;;17.33;;
51499;SDS011;39101;53.478;6.158;2023-04-01T03:12:42;36.17;;;16.00;;
51499;SDS011;39101;53.478;6.158;2023-04-01T03:15:09;37.87;;;18.77;;
51499;SDS011;39101;53.478;6.158;2023-04-01T03:17:36;34.50;;;17.77;;
51499;SDS011;39101;53.478;6.158;2023-04-01T03:20:02;34.10;;;16.73;;
51499;SDS011;39101;53.478;6.158;2023-04-01T03:22:30;30.97;;;17.33;;
51499;SDS011;39101;53.478;6.158;2023-04-01T03:24:56;30.70;;;16.77;;
51499;SDS011;39101;53.478;6.158;2023-04-01T03:27:21;31.10;;;18.10;;
51499;SDS011;39101;53.478;6.158;2023-04-01T03:29:48;33.43;;;18.57;;
51499;SDS011;39101;53.478;6.158;2023-04-01T03:32:13;33.73;;;18.70;;
51499;SDS011;39101;53.478;6.158;2023-04-01T03:34:39;35.60;;;17.33;;
51499;SDS011;39101;53.478;6.158;2023-04-01T03:37:05;48.57;;;20.63;;
51499;SDS011;39101;53.478;6.158;2023-04-01T03:39:31;44.67;;;19.60;;
51499;SDS011;39101;53.478;6.158;2023-04-01T03:41:56;42.53;;;19.43;;
51499;SDS011;39101;53.478;6.158;2023-04-01T03:44:22;37.63;;;17.50;;
51499;SDS011;39101;53.478;6.158;2023-04-01T03:46:48;37.47;;;20.03;;
51499;SDS011;39101;53.478;6.158;2023-04-01T03:49:13;36.13;;;18.57;;
51499;SDS011;39101;53.478;6.158;2023-04-01T03:51:40;33.50;;;16.57;;
51499;SDS011;39101;53.478;6.158;2023-04-01T03:54:07;32.67;;;17.30;;
51499;SDS011;39101;53.478;6.158;2023-04-01T03:56:33;32.43;;;17.37;;
51499;SDS011;39101;53.478;6.158;2023-04-01T03:59:01;46.13;;;19.70;;
51499;SDS011;39101;53.478;6.158;2023-04-01T04:01:28;31.75;;;16.73;;
51499;SDS011;39101;53.478;6.158;2023-04-01T04:03:54;39.07;;;18.27;;
51499;SDS011;39101;53.478;6.158;2023-04-01T04:06:21;38.20;;;19.27;;
51499;SDS011;39101;53.478;6.158;2023-04-01T04:08:47;36.37;;;17.50;;
51499;SDS011;39101;53.478;6.158;2023-04-01T04:11:14;36.60;;;18.33;;
51499;SDS011;39101;53.478;6.158;2023-04-01T04:13:40;41.57;;;19.47;;
51499;SDS011;39101;53.478;6.158;2023-04-01T04:16:06;30.37;;;17.63;;
51499;SDS011;39101;53.478;6.158;2023-04-01T04:18:32;34.10;;;17.43;;
51499;SDS011;39101;53.478;6.158;2023-04-01T04:20:58;37.47;;;18.93;;
51499;SDS011;39101;53.478;6.158;2023-04-01T04:23:24;39.77;;;18.47;;
51499;SDS011;39101;53.478;6.158;2023-04-01T04:25:56;50.93;;;22.70;;
51499;SDS011;39101;53.478;6.158;2023-04-01T04:28:23;35.17;;;17.97;;
51499;SDS011;39101;53.478;6.158;2023-04-01T04:30:51;36.60;;;18.30;;
51499;SDS011;39101;53.478;6.158;2023-04-01T04:33:17;34.77;;;17.23;;
51499;SDS011;39101;53.478;6.158;2023-04-01T04:35:42;41.73;;;19.60;;
51499;SDS011;39101;53.478;6.158;2023-04-01T04:38:08;39.10;;;19.13;;
51499;SDS011;39101;53.478;6.158;2023-04-01T04:40:35;39.83;;;18.73;;
51499;SDS011;39101;53.478;6.158;2023-04-01T04:43:05;44.43;;;19.40;;
51499;SDS011;39101;53.478;6.158;2023-04-01T04:45:31;37.97;;;18.77;;
51499;SDS011;39101;53.478;6.158;2023-04-01T04:47:57;41.43;;;19.87;;
51499;SDS011;39101;53.478;6.158;2023-04-01T04:50:23;44.27;;;19.47;;
51499;SDS011;39101;53.478;6.158;2023-04-01T04:52:50;42.57;;;19.93;;
51499;SDS011;39101;53.478;6.158;2023-04-01T04:55:16;47.93;;;21.70;;
51499;SDS011;39101;53.478;6.158;2023-04-01T04:57:42;42.57;;;19.43;;
51499;SDS011;39101;53.478;6.158;2023-04-01T05:00:08;42.80;;;19.50;;
51499;SDS011;39101;53.478;6.158;2023-04-01T05:02:37;53.77;;;22.67;;
51499;SDS011;39101;53.478;6.158;2023-04-01T05:05:03;53.30;;;21.83;;
51499;SDS011;39101;53.478;6.158;2023-04-01T05:07:29;48.30;;;19.97;;
51499;SDS011;39101;53.478;6.158;2023-04-01T05:09:55;46.17;;;21.17;;
51499;SDS011;39101;53.478;6.158;2023-04-01T05:12:20;52.67;;;21.23;;
51499;SDS011;39101;53.478;6.158;2023-04-01T05:14:46;70.97;;;25.80;;
51499;SDS011;39101;53.478;6.158;2023-04-01T05:17:12;44.97;;;21.63;;
51499;SDS011;39101;53.478;6.158;2023-04-01T05:19:38;49.73;;;22.03;;
51499;SDS011;39101;53.478;6.158;2023-04-01T05:22:04;43.13;;;21.27;;
51499;SDS011;39101;53.478;6.158;2023-04-01T05:24:31;53.17;;;22.13;;
51499;SDS011;39101;53.478;6.158;2023-04-01T05:26:56;49.63;;;21.40;;
51499;SDS011;39101;53.478;6.158;2023-04-01T05:29:23;52.77;;;22.20;;
51499;SDS011;39101;53.478;6.158;2023-04-01T05:31:49;52.63;;;22.73;;
51499;SDS011;39101;53.478;6.158;2023-04-01T05:34:15;48.57;;;22.90;;
51499;SDS011;39101;53.478;6.158;2023-04-01T05:36:41;57.33;;;22.63;;
51499;SDS011;39101;53.478;6.158;2023-04-01T05:39:08;55.33;;;24.83;;
51499;SDS011;39101;53.478;6.158;2023-04-01T05:41:37;54.80;;;22.70;;
51499;SDS011;39101;53.478;6.158;2023-04-01T05:44:03;58.60;;;23.70;;
51499;SDS011;39101;53.478;6.158;2023-04-01T05:46:30;53.20;;;21.47;;
51499;SDS011;39101;53.478;6.158;2023-04-01T05:48:56;54.67;;;22.80;;
51499;SDS011;39101;53.478;6.158;2023-04-01T05:51:22;50.93;;;20.80;;
51499;SDS011;39101;53.478;6.158;2023-04-01T05:53:48;67.37;;;23.60;;
51499;SDS011;39101;53.478;6.158;2023-04-01T05:56:14;54.67;;;20.23;;
51499;SDS011;39101;53.478;6.158;2023-04-01T05:58:40;61.87;;;22.57;;
51499;SDS011;39101;53.478;6.158;2023-04-01T06:01:07;64.60;;;21.87;;
51499;SDS011;39101;53.478;6.158;2023-04-01T06:03:34;62.20;;;21.67;;
51499;SDS011;39101;53.478;6.158;2023-04-01T06:06:00;67.00;;;21.73;;
51499;SDS011;39101;53.478;6.158;2023-04-01T06:08:27;68.10;;;21.20;;
51499;SDS011;39101;53.478;6.158;2023-04-01T06:13:47;66.17;;;22.23;;
51499;SDS011;39101;53.478;6.158;2023-04-01T06:16:56;71.97;;;21.90;;
51499;SDS011;39101;53.478;6.158;2023-04-01T06:30:24;74.77;;;22.50;;
51499;SDS011;39101;53.478;6.158;2023-04-01T06:46:58;39.97;;;15.30;;
51499;SDS011;39101;53.478;6.158;2023-04-01T06:49:48;46.70;;;17.27;;
51499;SDS011;39101;53.478;6.158;2023-04-01T06:52:37;44.10;;;16.80;;
51499;SDS011;39101;53.478;6.158;2023-04-01T06:55:36;40.57;;;15.50;;
51499;SDS011;39101;53.478;6.158;2023-04-01T07:00:48;35.70;;;13.20;;
51499;SDS011;39101;53.478;6.158;2023-04-01T07:03:26;32.35;;;13.10;;
51499;SDS011;39101;53.478;6.158;2023-04-01T07:05:56;35.60;;;12.10;;
51499;SDS011;39101;53.478;6.158;2023-04-01T07:08:24;29.80;;;10.43;;
51499;SDS011;39101;53.478;6.158;2023-04-01T07:11:02;29.63;;;9.80;;
51499;SDS011;39101;53.478;6.158;2023-04-01T07:13:42;28.17;;;9.07;;
51499;SDS011;39101;53.478;6.158;2023-04-01T07:16:21;24.97;;;7.00;;
51499;SDS011;39101;53.478;6.158;2023-04-01T07:19:00;32.10;;;6.50;;
51499;SDS011;39101;53.478;6.158;2023-04-01T07:21:44;22.90;;;6.43;;
51499;SDS011;39101;53.478;6.158;2023-04-01T07:24:15;20.37;;;4.90;;
51499;SDS011;39101;53.478;6.158;2023-04-01T07:26:47;15.73;;;4.90;;
51499;SDS011;39101;53.478;6.158;2023-04-01T07:29:17;20.03;;;4.53;;
51499;SDS011;39101;53.478;6.158;2023-04-01T07:46:27;13.63;;;3.17;;
51499;SDS011;39101;53.478;6.158;2023-04-01T07:49:13;24.87;;;4.03;;
51499;SDS011;39101;53.478;6.158;2023-04-01T07:57:22;22.10;;;3.80;;
51499;SDS011;39101;53.478;6.158;2023-04-01T08:10:45;15.13;;;3.90;;
51499;SDS011;39101;53.478;6.158;2023-04-01T08:13:34;15.87;;;3.70;;
51499;SDS011;39101;53.478;6.158;2023-04-01T08:16:20;17.43;;;4.27;;
51499;SDS011;39101;53.478;6.158;2023-04-01T08:21:52;21.63;;;3.90;;
51499;SDS011;39101;53.478;6.158;2023-04-01T08:26:49;22.07;;;3.57;;
51499;SDS011;39101;53.478;6.158;2023-04-01T08:29:21;23.00;;;4.77;;
51499;SDS011;39101;53.478;6.158;2023-04-01T08:31:53;19.80;;;4.03;;
51499;SDS011;39101;53.478;6.158;2023-04-01T08:34:25;15.67;;;3.00;;
51499;SDS011;39101;53.478;6.158;2023-04-01T08:37:01;14.87;;;3.57;;
51499;SDS011;39101;53.478;6.158;2023-04-01T08:45:10;21.33;;;3.57;;
51499;SDS011;39101;53.478;6.158;2023-04-01T08:58:55;16.37;;;3.40;;
51499;SDS011;39101;53.478;6.158;2023-04-01T09:04:31;18.83;;;4.57;;
51499;SDS011;39101;53.478;6.158;2023-04-01T09:12:59;18.13;;;4.30;;
51499;SDS011;39101;53.478;6.158;2023-04-01T09:21:37;21.17;;;3.73;;
51499;SDS011;39101;53.478;6.158;2023-04-01T09:37:57;19.80;;;3.30;;
51499;SDS011;39101;53.478;6.158;2023-04-01T09:50:47;20.10;;;3.70;;
51499;SDS011;39101;53.478;6.158;2023-04-01T09:58:58;23.13;;;3.57;;
51499;SDS011;39101;53.478;6.158;2023-04-01T10:28:38;13.53;;;3.40;;
51499;SDS011;39101;53.478;6.158;2023-04-01T11:01:22;20.98;;;4.38;;
51499;SDS011;39101;53.478;6.158;2023-04-01T11:18:17;13.70;;;3.23;;
51499;SDS011;39101;53.478;6.158;2023-04-01T11:21:30;20.13;;;3.87;;
51499;SDS011;39101;53.478;6.158;2023-04-01T11:41:13;11.25;;;2.40;;
51499;SDS011;39101;53.478;6.158;2023-04-01T12:18:42;15.67;;;2.83;;
51499;SDS011;39101;53.478;6.158;2023-04-01T12:23:52;17.87;;;3.07;;
51499;SDS011;39101;53.478;6.158;2023-04-01T12:29:49;18.00;;;3.33;;
51499;SDS011;39101;53.478;6.158;2023-04-01T12:46:16;18.20;;;2.83;;
51499;SDS011;39101;53.478;6.158;2023-04-01T12:51:24;17.17;;;3.50;;
51499;SDS011;39101;53.478;6.158;2023-04-01T13:18:34;16.60;;;3.13;;
51499;SDS011;39101;53.478;6.158;2023-04-01T13:21:21;9.10;;;3.00;;
51499;SDS011;39101;53.478;6.158;2023-04-01T13:24:01;17.60;;;3.67;;
51499;SDS011;39101;53.478;6.158;2023-04-01T13:26:34;16.93;;;3.37;;
51499;SDS011;39101;53.478;6.158;2023-04-01T13:29:23;14.10;;;3.13;;
51499;SDS011;39101;53.478;6.158;2023-04-01T13:32:29;13.40;;;3.40;;
51499;SDS011;39101;53.478;6.158;2023-04-01T13:35:55;19.63;;;3.63;;
51499;SDS011;39101;53.478;6.158;2023-04-01T13:44:17;15.20;;;5.03;;
51499;SDS011;39101;53.478;6.158;2023-04-01T14:09:28;17.87;;;4.93;;
51499;SDS011;39101;53.478;6.158;2023-04-01T14:14:33;17.93;;;5.70;;
51499;SDS011;39101;53.478;6.158;2023-04-01T14:17:47;18.60;;;5.67;;
51499;SDS011;39101;53.478;6.158;2023-04-01T14:23:20;21.07;;;6.43;;
51499;SDS011;39101;53.478;6.158;2023-04-01T14:28:35;20.90;;;6.13;;
51499;SDS011;39101;53.478;6.158;2023-04-01T14:39:48;16.55;;;5.30;;
51499;SDS011;39101;53.478;6.158;2023-04-01T14:50:17;17.17;;;5.97;;
51499;SDS011;39101;53.478;6.158;2023-04-01T14:52:59;13.93;;;5.07;;
51499;SDS011;39101;53.478;6.158;2023-04-01T14:55:58;16.90;;;6.00;;
51499;SDS011;39101;53.478;6.158;2023-04-01T14:58:45;22.90;;;7.70;;
51499;SDS011;39101;53.478;6.158;2023-04-01T15:26:01;24.50;;;9.37;;
51499;SDS011;39101;53.478;6.158;2023-04-01T15:50:51;16.73;;;6.87;;
51499;SDS011;39101;53.478;6.158;2023-04-01T15:59:09;21.92;;;7.43;;
51499;SDS011;39101;53.478;6.158;2023-04-01T16:02:07;25.27;;;7.80;;
51499;SDS011;39101;53.478;6.158;2023-04-01T16:24:14;23.97;;;7.30;;
51499;SDS011;39101;53.478;6.158;2023-04-01T16:26:48;23.07;;;7.83;;
51499;SDS011;39101;53.478;6.158;2023-04-01T16:29:32;31.90;;;11.80;;
51499;SDS011;39101;53.478;6.158;2023-04-01T16:37:32;20.30;;;8.13;;
51499;SDS011;39101;53.478;6.158;2023-04-01T16:40:14;23.33;;;8.67;;
51499;SDS011;39101;53.478;6.158;2023-04-01T16:42:53;24.47;;;7.03;;
51499;SDS011;39101;53.478;6.158;2023-04-01T16:47:56;23.27;;;8.80;;
51499;SDS011;39101;53.478;6.158;2023-04-01T16:50:39;18.07;;;6.23;;
51499;SDS011;39101;53.478;6.158;2023-04-01T16:53:17;31.50;;;10.97;;
51499;SDS011;39101;53.478;6.158;2023-04-01T16:56:04;23.77;;;9.05;;
51499;SDS011;39101;53.478;6.158;2023-04-01T17:01:14;20.20;;;6.83;;
51499;SDS011;39101;53.478;6.158;2023-04-01T17:03:46;25.90;;;7.07;;
51499;SDS011;39101;53.478;6.158;2023-04-01T17:09:21;24.53;;;8.30;;
51499;SDS011;39101;53.478;6.158;2023-04-01T17:17:14;20.40;;;6.17;;
51499;SDS011;39101;53.478;6.158;2023-04-01T17:28:27;18.13;;;7.77;;
51499;SDS011;39101;53.478;6.158;2023-04-01T17:37:16;23.37;;;6.87;;
51499;SDS011;39101;53.478;6.158;2023-04-01T17:54:21;16.40;;;5.70;;
51499;SDS011;39101;53.478;6.158;2023-04-01T18:02:31;19.10;;;7.00;;
51499;SDS011;39101;53.478;6.158;2023-04-01T18:10:25;18.07;;;6.70;;
51499;SDS011;39101;53.478;6.158;2023-04-01T18:13:24;19.67;;;5.90;;
51499;SDS011;39101;53.478;6.158;2023-04-01T18:23:59;17.17;;;5.57;;
51499;SDS011;39101;53.478;6.158;2023-04-01T18:26:36;16.55;;;6.22;;
51499;SDS011;39101;53.478;6.158;2023-04-01T18:31:53;20.57;;;6.77;;
51499;SDS011;39101;53.478;6.158;2023-04-01T18:39:50;18.43;;;5.73;;
51499;SDS011;39101;53.478;6.158;2023-04-01T18:42:33;15.07;;;6.00;;
51499;SDS011;39101;53.478;6.158;2023-04-01T18:45:20;27.80;;;6.90;;
51499;SDS011;39101;53.478;6.158;2023-04-01T18:51:16;15.02;;;6.47;;
51499;SDS011;39101;53.478;6.158;2023-04-01T18:53:55;18.43;;;6.53;;
51499;SDS011;39101;53.478;6.158;2023-04-01T18:56:35;20.70;;;7.10;;
51499;SDS011;39101;53.478;6.158;2023-04-01T19:01:43;18.60;;;5.33;;
51499;SDS011;39101;53.478;6.158;2023-04-01T19:07:56;22.87;;;5.87;;
51499;SDS011;39101;53.478;6.158;2023-04-01T19:15:49;23.73;;;5.27;;
51499;SDS011;39101;53.478;6.158;2023-04-01T19:18:24;19.13;;;5.93;;
51499;SDS011;39101;53.478;6.158;2023-04-01T19:23:51;18.10;;;4.13;;
51499;SDS011;39101;53.478;6.158;2023-04-01T19:37:02;15.87;;;4.33;;
51499;SDS011;39101;53.478;6.158;2023-04-01T19:47:57;23.50;;;5.77;;
51499;SDS011;39101;53.478;6.158;2023-04-01T19:58:43;16.90;;;4.30;;
51499;SDS011;39101;53.478;6.158;2023-04-01T20:01:20;12.20;;;4.03;;
51499;SDS011;39101;53.478;6.158;2023-04-01T20:04:02;17.43;;;4.43;;
51499;SDS011;39101;53.478;6.158;2023-04-01T20:12:42;14.97;;;3.90;;
51499;SDS011;39101;53.478;6.158;2023-04-01T20:15:46;10.90;;;3.80;;
51499;SDS011;39101;53.478;6.158;2023-04-01T20:18:17;13.67;;;4.23;;
51499;SDS011;39101;53.478;6.158;2023-04-01T20:21:15;9.57;;;3.47;;
51499;SDS011;39101;53.478;6.158;2023-04-01T20:23:43;16.73;;;5.87;;
51499;SDS011;39101;53.478;6.158;2023-04-01T20:26:13;13.53;;;3.83;;
51499;SDS011;39101;53.478;6.158;2023-04-01T20:31:53;20.63;;;5.37;;
51499;SDS011;39101;53.478;6.158;2023-04-01T20:42:57;12.37;;;5.13;;
51499;SDS011;39101;53.478;6.158;2023-04-01T20:53:16;14.33;;;3.77;;
51499;SDS011;39101;53.478;6.158;2023-04-01T21:07:25;17.73;;;3.97;;
51499;SDS011;39101;53.478;6.158;2023-04-01T21:26:29;11.93;;;3.40;;
51499;SDS011;39101;53.478;6.158;2023-04-01T21:31:52;14.57;;;3.33;;
51499;SDS011;39101;53.478;6.158;2023-04-01T21:34:32;15.43;;;3.27;;
51499;SDS011;39101;53.478;6.158;2023-04-01T21:37:53;11.60;;;3.23;;
51499;SDS011;39101;53.478;6.158;2023-04-01T21:40:24;13.40;;;3.30;;
51499;SDS011;39101;53.478;6.158;2023-04-01T21:43:14;12.20;;;2.53;;
51499;SDS011;39101;53.478;6.158;2023-04-01T21:56:52;12.83;;;2.80;;
51499;SDS011;39101;53.478;6.158;2023-04-01T22:17:08;15.47;;;3.00;;
51499;SDS011;39101;53.478;6.158;2023-04-01T22:25:46;13.00;;;2.50;;
51499;SDS011;39101;53.478;6.158;2023-04-01T22:28:19;13.05;;;2.28;;
51499;SDS011;39101;53.478;6.158;2023-04-01T22:30:56;13.97;;;4.17;;
51499;SDS011;39101;53.478;6.158;2023-04-01T22:33:40;13.40;;;2.90;;
51499;SDS011;39101;53.478;6.158;2023-04-01T22:44:34;17.47;;;3.23;;
51499;SDS011;39101;53.478;6.158;2023-04-01T22:50:16;11.67;;;4.57;;
51499;SDS011;39101;53.478;6.158;2023-04-01T22:52:55;15.13;;;3.17;;
51499;SDS011;39101;53.478;6.158;2023-04-01T22:55:46;14.23;;;3.30;;
51499;SDS011;39101;53.478;6.158;2023-04-01T23:00:50;15.07;;;3.57;;
51499;SDS011;39101;53.478;6.158;2023-04-01T23:05:53;16.53;;;3.77;;
51499;SDS011;39101;53.478;6.158;2023-04-01T23:11:08;14.40;;;3.60;;
51499;SDS011;39101;53.478;6.158;2023-04-01T23:13:44;12.50;;;2.90;;
51499;SDS011;39101;53.478;6.158;2023-04-01T23:16:19;16.63;;;3.27;;
51499;SDS011;39101;53.478;6.158;2023-04-01T23:27:21;13.63;;;3.33;;
51499;SDS011;39101;53.478;6.158;2023-04-01T23:29:52;12.57;;;3.07;;
51499;SDS011;39101;53.478;6.158;2023-04-01T23:32:18;12.03;;;2.60;;
51499;SDS011;39101;53.478;6.158;2023-04-01T23:34:50;11.53;;;2.70;;
51499;SDS011;39101;53.478;6.158;2023-04-01T23:37:21;14.97;;;2.73;;
51499;SDS011;39101;53.478;6.158;2023-04-01T23:39:49;15.07;;;2.90;;
51499;SDS011;39101;53.478;6.158;2023-04-01T23:42:27;15.17;;;4.27;;
51499;SDS011;39101;53.478;6.158;2023-04-01T23:45:00;18.03;;;3.93;;
51499;SDS011;39101;53.478;6.158;2023-04-01T23:47:32;8.98;;;2.50;;
51499;SDS011;39101;53.478;6.158;2023-04-01T23:50:03;10.40;;;2.70;;
51499;SDS011;39101;53.478;6.158;2023-04-01T23:52:39;9.67;;;2.70;;
51499;SDS011;39101;53.478;6.158;2023-04-01T23:55:13;9.43;;;3.13;;
51499;SDS011;39101;53.478;6.158;2023-04-01T23:57:43;11.43;;;3.40;;
